KMMU/MMU METAR and TAF weather

Enter ICAO airport designator
Station Type Date Time Source
KMMU METAR 2020/02/21 01:45 UTC NOAA

KMMU 210145Z 36007KT 10SM SKC M02/M11 A3045


Station Type Date Time Source
KMMU Decoded METAR 2020/02/21 01:45 UTC NOAA

Morristown Municipal, NJ, United States (KMMU) 40-48N 074-25W
Feb 20, 2020 - 08:45 PM EST / 2020.02.21 0145 UTC
Wind: from the N (360 degrees) at 8 MPH (7 KT):0
Visibility: 10 mile(s):0
Sky conditions: clear
Temperature: 28 F (-2 C)
Windchill: 19 F (-7 C):1
Dew Point: 12 F (-11 C)
Relative Humidity: 50%
Pressure (altimeter): 30.45 in. Hg (1031 hPa)
ob: KMMU 210145Z 36007KT 10SM SKC M02/M11 A3045
cycle: 2

Station Type Date Time Source
KMMU TAF UTC NOAA

Error!

Example: see airport list